Aviation Digital Data Service (ADDS)

Output produced by METARs form (0307 UTC 28 February 2017)
found at http://aviationweather.gov/adds/metars/
 
KDAN 272332Z 2800/2824 VRB04KT P6SM SCT100 
     FM280600 00000KT P6SM BKN040 
     FM282100 21009KT P6SM OVC030